アセンション島 の空港の天気 - METARとTAF

アセンション島空軍基地 ( FHAW / ASI ) - ジョージタウン
飛行場実況気象(Metar)
観測時間01/23 04:50 GMT (01/23 04:50 UTC)
風向・風速南東 4m/s
視程10km以上
天気現象
少しの雲 雲底高度 490m
気温24℃
湿度83%
気圧1012hPa
METARFHAW 230450Z 13008KT 9999 FEW016 24/21 Q1012 BLU NOSIG
過去の天気等 Google飛行場航空写真 Wunderground天気予報

過去48時間のMETAR

飛行場予報(TAF)
発表時間: 1/23 04:30 GMT (1/23 04:30 UTC)
予報対象時間: 23日6時 GMT ~ 24日0時 GMT
風向・風速南東 7m/s
視程10km以上
少しの雲 雲底高度 460m
23日6時 GMT ~ 23日24時 GMT に 確率 30% で一時的に
全天の4割程度の雲 雲底高度 460m
TAF FHAW 230430Z 2306/2324 13013KT 9999 FEW015
PROB30 TEMPO 2306/2324 SCT015